createdAt,value
2023-04-15T00:01:12.025Z,88.51
2023-04-15T00:03:39.793Z,89.02
2023-04-15T00:06:07.784Z,88.93
2023-04-15T00:08:35.080Z,88.89
2023-04-15T00:11:05.808Z,89.20
2023-04-15T00:13:34.197Z,89.35
2023-04-15T00:16:01.694Z,89.11
2023-04-15T00:18:30.002Z,88.62
2023-04-15T00:20:57.367Z,88.38
2023-04-15T00:23:24.918Z,88.63
2023-04-15T00:25:52.237Z,88.55
2023-04-15T00:28:19.550Z,88.76
2023-04-15T00:30:47.358Z,88.82
2023-04-15T00:33:14.941Z,88.89
2023-04-15T00:35:42.269Z,89.10
2023-04-15T00:38:09.625Z,89.32
2023-04-15T00:40:36.903Z,88.66
2023-04-15T00:43:05.710Z,88.68
2023-04-15T00:45:33.525Z,88.95
2023-04-15T00:48:01.010Z,88.73
2023-04-15T00:50:28.296Z,88.68
2023-04-15T00:52:56.149Z,88.67
2023-04-15T00:55:23.744Z,88.75
2023-04-15T00:57:51.153Z,89.24
2023-04-15T01:00:18.429Z,88.96
2023-04-15T01:02:46.870Z,88.89
2023-04-15T01:05:17.290Z,89.00
2023-04-15T01:07:44.558Z,89.25
2023-04-15T01:10:12.041Z,89.35
2023-04-15T01:12:39.723Z,89.77
2023-04-15T01:15:08.358Z,90.07
2023-04-15T01:17:35.748Z,89.63
2023-04-15T01:20:02.973Z,89.61
2023-04-15T01:22:31.593Z,89.62
2023-04-15T01:25:20.422Z,89.63
2023-04-15T01:27:47.707Z,89.98
2023-04-15T01:30:16.338Z,89.50
2023-04-15T01:32:43.683Z,89.19
2023-04-15T01:35:12.162Z,88.80
2023-04-15T01:37:39.499Z,89.02
2023-04-15T01:40:08.112Z,89.15
2023-04-15T01:42:36.806Z,89.34
2023-04-15T01:45:04.312Z,89.33
2023-04-15T01:47:32.265Z,89.49
2023-04-15T01:49:59.591Z,89.23
2023-04-15T01:52:26.901Z,89.15
2023-04-15T01:54:54.184Z,89.17
2023-04-15T01:57:21.479Z,89.28
2023-04-15T01:59:48.781Z,89.29
2023-04-15T02:02:16.347Z,89.43
2023-04-15T02:04:43.633Z,89.51
2023-04-15T02:07:10.990Z,89.37
2023-04-15T02:09:38.728Z,89.62
2023-04-15T02:12:08.301Z,89.77
2023-04-15T02:14:35.764Z,89.88
2023-04-15T02:17:07.420Z,90.05
2023-04-15T02:19:35.337Z,89.58
2023-04-15T02:22:04.059Z,89.49
2023-04-15T02:24:31.652Z,89.50
2023-04-15T02:26:58.863Z,89.45
2023-04-15T02:29:26.252Z,89.61
2023-04-15T02:31:53.540Z,89.63
2023-04-15T02:34:20.924Z,89.85
2023-04-15T02:36:49.668Z,90.25
2023-04-15T02:39:18.651Z,89.94
2023-04-15T02:41:51.874Z,89.92
2023-04-15T02:44:20.645Z,89.99
2023-04-15T02:46:52.598Z,89.75
2023-04-15T02:49:21.952Z,89.59
2023-04-15T02:51:49.855Z,89.48
2023-04-15T02:54:17.728Z,89.47
2023-04-15T02:56:44.912Z,89.67
2023-04-15T02:59:12.939Z,89.52
2023-04-15T03:01:40.230Z,89.41
2023-04-15T03:04:10.221Z,89.46
2023-04-15T03:06:37.666Z,89.64
2023-04-15T03:09:05.038Z,89.44
2023-04-15T03:11:37.114Z,89.05
2023-04-15T03:14:04.863Z,89.23
2023-04-15T03:16:35.627Z,89.65
2023-04-15T03:19:03.154Z,89.63
2023-04-15T03:21:31.541Z,89.43
2023-04-15T03:23:58.910Z,89.53
2023-04-15T03:26:30.032Z,89.30
2023-04-15T03:29:01.734Z,89.56
2023-04-15T03:31:29.360Z,89.54
2023-04-15T03:33:56.599Z,89.30
2023-04-15T03:36:24.234Z,89.28
2023-04-15T03:38:51.504Z,89.56
2023-04-15T03:41:18.917Z,89.36
2023-04-15T03:43:46.228Z,89.64
2023-04-15T03:46:13.531Z,89.27
2023-04-15T03:48:40.834Z,89.01
2023-04-15T03:51:08.241Z,89.11
2023-04-15T03:53:35.652Z,89.36
2023-04-15T03:56:02.897Z,89.43
2023-04-15T03:58:30.141Z,89.78
2023-04-15T04:00:57.452Z,89.57
2023-04-15T04:03:24.888Z,89.40
2023-04-15T04:05:52.218Z,89.48
2023-04-15T04:08:20.498Z,89.62
2023-04-15T04:10:47.901Z,89.72
2023-04-15T04:13:15.141Z,89.85
2023-04-15T04:15:42.429Z,90.04
2023-04-15T04:18:09.636Z,90.15
2023-04-15T04:20:36.952Z,89.71
2023-04-15T04:23:04.290Z,89.69
2023-04-15T04:25:31.670Z,90.02
2023-04-15T04:27:59.432Z,89.93
2023-04-15T04:30:26.835Z,89.75
2023-04-15T04:32:54.112Z,89.42
2023-04-15T04:35:22.070Z,89.28
2023-04-15T04:37:49.277Z,89.23
2023-04-15T04:40:16.791Z,89.24
2023-04-15T04:42:43.989Z,89.17
2023-04-15T04:45:11.490Z,89.33
2023-04-15T04:47:38.747Z,89.53
2023-04-15T04:50:06.964Z,89.37
2023-04-15T04:52:34.211Z,89.33
2023-04-15T04:55:01.434Z,89.34
2023-04-15T04:57:28.664Z,89.42
2023-04-15T04:59:55.980Z,89.53
2023-04-15T05:02:23.410Z,89.15
2023-04-15T05:04:54.444Z,88.93
2023-04-15T05:07:22.283Z,89.38
2023-04-15T05:09:49.599Z,88.91
2023-04-15T05:12:18.263Z,88.84
2023-04-15T05:14:46.885Z,88.92
2023-04-15T05:17:14.428Z,88.81
2023-04-15T05:19:41.661Z,89.01
2023-04-15T05:22:09.060Z,89.29
2023-04-15T05:24:36.531Z,88.74
2023-04-15T05:27:03.830Z,88.78
2023-04-15T05:29:31.333Z,88.54
2023-04-15T05:31:58.672Z,88.58
2023-04-15T05:34:26.069Z,88.93
2023-04-15T05:36:53.396Z,88.65
2023-04-15T05:39:20.798Z,88.58
2023-04-15T05:41:48.122Z,88.71
2023-04-15T05:44:15.511Z,88.95
2023-04-15T05:46:43.478Z,89.10
2023-04-15T05:49:10.838Z,88.99
2023-04-15T05:51:38.041Z,88.69
2023-04-15T05:54:05.261Z,88.53
2023-04-15T05:56:32.708Z,88.77
2023-04-15T05:59:00.266Z,88.92
2023-04-15T06:01:27.791Z,89.20
2023-04-15T06:03:55.612Z,88.79
2023-04-15T06:06:23.568Z,88.46
2023-04-15T06:08:51.024Z,88.38
2023-04-15T06:11:18.273Z,88.25
2023-04-15T06:13:45.568Z,88.47
2023-04-15T06:16:13.565Z,88.62
2023-04-15T06:18:40.805Z,88.52
2023-04-15T06:21:08.131Z,88.69
2023-04-15T06:23:36.480Z,88.27
2023-04-15T06:26:03.837Z,87.75
2023-04-15T06:28:31.399Z,87.58
2023-04-15T06:30:58.726Z,87.58
2023-04-15T06:33:25.984Z,87.62
2023-04-15T06:35:53.347Z,87.46
2023-04-15T06:38:20.585Z,87.74
2023-04-15T06:40:47.943Z,87.16
2023-04-15T06:43:15.479Z,87.38
2023-04-15T06:45:42.784Z,86.77
2023-04-15T06:48:09.997Z,86.92
2023-04-15T06:50:37.764Z,87.41
2023-04-15T06:53:04.963Z,87.11
2023-04-15T06:55:32.430Z,86.56
2023-04-15T06:57:59.585Z,86.14
2023-04-15T07:00:28.362Z,86.72
2023-04-15T07:02:55.829Z,86.25
2023-04-15T07:05:23.375Z,86.10
2023-04-15T07:07:50.585Z,86.61
2023-04-15T07:10:17.827Z,86.49
2023-04-15T07:12:45.077Z,85.94
2023-04-15T07:15:12.621Z,86.11
2023-04-15T07:17:41.589Z,86.20
2023-04-15T07:20:09.358Z,85.42
2023-04-15T07:22:36.551Z,86.22
2023-04-15T07:25:04.291Z,86.21
2023-04-15T07:27:31.732Z,86.58
2023-04-15T07:29:58.960Z,85.29
2023-04-15T07:32:26.240Z,85.20
2023-04-15T07:34:53.647Z,84.62
2023-04-15T07:37:20.860Z,84.92
2023-04-15T07:39:49.103Z,84.86
2023-04-15T07:42:16.693Z,83.91
2023-04-15T07:44:43.942Z,83.95
2023-04-15T07:47:11.890Z,83.07
2023-04-15T07:49:39.334Z,83.32
2023-04-15T07:52:06.663Z,83.21
2023-04-15T07:54:33.924Z,83.81
2023-04-15T07:57:01.553Z,83.41
2023-04-15T07:59:30.250Z,83.58
2023-04-15T08:01:57.623Z,83.01
2023-04-15T08:04:25.291Z,82.32
2023-04-15T08:06:52.680Z,82.24
2023-04-15T08:09:20.094Z,81.54
2023-04-15T08:11:48.920Z,81.05
2023-04-15T08:14:16.842Z,81.88
2023-04-15T08:16:44.104Z,81.74
2023-04-15T08:19:11.534Z,81.94
2023-04-15T08:21:38.832Z,82.44
2023-04-15T08:24:06.940Z,82.32
2023-04-15T08:26:34.214Z,82.97
2023-04-15T08:29:01.871Z,82.48
2023-04-15T08:31:30.030Z,82.73
2023-04-15T08:33:57.813Z,82.41
2023-04-15T08:36:25.235Z,81.44
2023-04-15T08:38:52.573Z,81.34
2023-04-15T08:41:23.814Z,82.04
2023-04-15T08:43:58.156Z,82.11
2023-04-15T08:46:25.648Z,82.79
2023-04-15T08:48:52.865Z,82.83
2023-04-15T08:51:20.137Z,81.81
2023-04-15T08:53:47.889Z,81.95
2023-04-15T08:56:16.780Z,82.11
2023-04-15T08:58:44.973Z,81.32
2023-04-15T09:01:13.217Z,81.63
2023-04-15T09:03:40.889Z,81.67
2023-04-15T09:06:08.531Z,80.77
2023-04-15T09:08:35.994Z,80.08
2023-04-15T09:11:03.872Z,80.21
2023-04-15T09:13:31.342Z,80.49
2023-04-15T09:15:58.747Z,79.80
2023-04-15T09:18:43.970Z,79.62
2023-04-15T09:21:12.828Z,80.21
2023-04-15T09:23:58.118Z,81.48
2023-04-15T09:26:35.790Z,80.61
2023-04-15T09:29:10.564Z,81.30
2023-04-15T09:31:38.013Z,81.42
2023-04-15T09:34:05.238Z,80.13
2023-04-15T09:36:53.727Z,80.39
2023-04-15T09:39:21.607Z,81.26
2023-04-15T09:42:04.739Z,81.92
2023-04-15T09:44:32.279Z,81.95
2023-04-15T09:46:59.540Z,82.33
2023-04-15T09:49:27.492Z,82.84
2023-04-15T09:52:05.504Z,82.11
2023-04-15T09:54:37.583Z,82.59
2023-04-15T09:57:08.666Z,83.00
2023-04-15T09:59:36.328Z,81.60
2023-04-15T10:02:04.698Z,81.93
2023-04-15T10:04:33.270Z,81.56
2023-04-15T10:07:00.551Z,81.33
2023-04-15T10:09:28.459Z,81.86
2023-04-15T10:11:56.155Z,80.97
2023-04-15T10:14:23.876Z,80.98
2023-04-15T10:16:51.275Z,81.15
2023-04-15T10:19:19.833Z,80.90
2023-04-15T10:21:47.112Z,79.63
2023-04-15T10:24:14.409Z,81.24
2023-04-15T10:26:41.626Z,80.55
2023-04-15T10:29:09.327Z,79.95
2023-04-15T10:31:38.411Z,78.74
2023-04-15T10:34:06.731Z,78.96
2023-04-15T10:36:34.085Z,77.47
2023-04-15T10:39:01.455Z,77.40
2023-04-15T10:41:31.372Z,77.93
2023-04-15T10:44:03.284Z,77.64
2023-04-15T10:46:39.190Z,77.06
2023-04-15T10:49:13.717Z,78.46
2023-04-15T10:51:51.131Z,76.98
2023-04-15T10:54:24.663Z,76.73
2023-04-15T10:57:04.258Z,76.28
2023-04-15T10:59:38.361Z,75.83
2023-04-15T11:02:07.021Z,76.29
2023-04-15T11:04:57.616Z,76.52
2023-04-15T11:07:38.158Z,75.90
2023-04-15T11:10:17.609Z,76.33
2023-04-15T11:12:45.525Z,76.35
2023-04-15T11:15:31.461Z,76.74
2023-04-15T11:18:19.185Z,77.36
2023-04-15T11:20:50.958Z,76.64
2023-04-15T11:23:19.266Z,76.28
2023-04-15T11:25:46.506Z,76.69
2023-04-15T11:28:13.914Z,76.01
2023-04-15T11:30:42.083Z,75.59
2023-04-15T11:33:12.344Z,74.90
2023-04-15T11:35:41.676Z,74.15
2023-04-15T11:38:10.735Z,74.25
2023-04-15T11:40:38.690Z,73.77
2023-04-15T11:43:20.872Z,74.56
2023-04-15T11:45:53.317Z,74.32
2023-04-15T11:48:22.692Z,71.69
2023-04-15T11:50:57.220Z,73.35
2023-04-15T11:53:24.878Z,73.17
2023-04-15T11:55:53.184Z,72.90
2023-04-15T11:58:24.830Z,73.77
2023-04-15T12:00:57.308Z,72.09
2023-04-15T12:03:26.039Z,71.42
2023-04-15T12:06:21.406Z,70.80
2023-04-15T12:08:49.087Z,71.59
2023-04-15T12:11:39.888Z,69.70
2023-04-15T12:14:20.387Z,69.34
2023-04-15T12:16:50.095Z,70.95
2023-04-15T12:19:24.520Z,70.91
2023-04-15T12:21:53.626Z,70.61
2023-04-15T12:24:22.933Z,69.29
2023-04-15T12:26:53.166Z,69.47
2023-04-15T12:29:21.278Z,70.54
2023-04-15T12:31:50.799Z,70.46
2023-04-15T12:34:20.085Z,69.55
2023-04-15T12:36:47.647Z,70.60
2023-04-15T12:39:14.965Z,70.05
2023-04-15T12:41:42.207Z,70.74
2023-04-15T12:44:09.551Z,71.44
2023-04-15T12:46:36.899Z,70.48
2023-04-15T12:49:04.694Z,70.08
2023-04-15T12:51:31.929Z,69.98
2023-04-15T12:53:59.291Z,68.49
2023-04-15T12:56:26.988Z,69.70
2023-04-15T12:58:54.408Z,68.46
2023-04-15T13:01:21.845Z,68.54
2023-04-15T13:03:50.547Z,68.71
2023-04-15T13:06:17.827Z,68.13
2023-04-15T13:08:57.441Z,68.40
2023-04-15T13:11:26.168Z,65.79
2023-04-15T13:13:53.491Z,66.12
2023-04-15T13:16:21.936Z,64.63
2023-04-15T13:18:49.348Z,63.58
2023-04-15T13:21:16.996Z,63.26
2023-04-15T13:23:44.218Z,62.58
2023-04-15T13:26:11.601Z,62.48
2023-04-15T13:28:39.029Z,61.59
2023-04-15T13:31:06.563Z,61.63
2023-04-15T13:33:33.889Z,61.16
2023-04-15T13:36:01.401Z,60.24
2023-04-15T13:38:28.766Z,61.64
2023-04-15T13:40:56.176Z,59.66
2023-04-15T13:43:23.617Z,60.36
2023-04-15T13:45:51.008Z,61.06
2023-04-15T13:48:18.266Z,60.67
2023-04-15T13:50:45.784Z,62.29
2023-04-15T13:53:13.166Z,62.14
2023-04-15T13:55:43.240Z,61.33
2023-04-15T13:58:10.878Z,62.10
2023-04-15T14:00:38.145Z,62.14
2023-04-15T14:03:05.665Z,62.51
2023-04-15T14:05:32.956Z,63.46
2023-04-15T14:08:01.126Z,62.93
2023-04-15T14:10:28.354Z,62.61
2023-04-15T14:12:55.718Z,62.81
2023-04-15T14:15:22.949Z,63.06
2023-04-15T14:17:50.324Z,62.67
2023-04-15T14:20:17.745Z,62.22
2023-04-15T14:22:45.098Z,63.06
2023-04-15T14:25:19.965Z,63.39
2023-04-15T14:27:47.580Z,62.70
2023-04-15T14:30:14.758Z,63.10
2023-04-15T14:32:42.082Z,63.58
2023-04-15T14:35:09.502Z,63.52
2023-04-15T14:37:36.842Z,64.71
2023-04-15T14:40:04.267Z,64.79
2023-04-15T14:42:31.560Z,64.31
2023-04-15T14:44:58.819Z,62.41
2023-04-15T14:47:26.305Z,61.94
2023-04-15T14:49:53.701Z,61.43
2023-04-15T14:52:21.030Z,62.45
2023-04-15T14:54:48.205Z,61.85
2023-04-15T14:57:15.465Z,62.26
2023-04-15T14:59:42.709Z,62.83
2023-04-15T15:02:10.598Z,62.12
2023-04-15T15:04:38.950Z,62.44
2023-04-15T15:07:06.637Z,62.13
2023-04-15T15:09:35.026Z,62.35
2023-04-15T15:12:02.688Z,63.28
2023-04-15T15:14:29.918Z,63.56
2023-04-15T15:16:57.189Z,62.97
2023-04-15T15:19:24.956Z,62.04
2023-04-15T15:21:52.292Z,62.39
2023-04-15T15:24:19.528Z,62.06
2023-04-15T15:26:46.750Z,62.13
2023-04-15T15:29:13.980Z,62.20
2023-04-15T15:31:41.434Z,60.66
2023-04-15T15:34:08.698Z,61.12
2023-04-15T15:36:36.049Z,60.86
2023-04-15T15:39:04.953Z,61.19
2023-04-15T15:41:33.472Z,61.33
2023-04-15T15:44:01.107Z,63.42
2023-04-15T15:46:28.428Z,66.05
2023-04-15T15:48:55.851Z,67.54
2023-04-15T15:51:23.281Z,67.97
2023-04-15T15:53:50.802Z,67.35
2023-04-15T15:56:18.021Z,67.93
2023-04-15T15:58:45.218Z,69.00
2023-04-15T16:01:12.640Z,69.11
2023-04-15T16:03:40.003Z,69.21
2023-04-15T16:06:07.391Z,70.27
2023-04-15T16:08:34.583Z,69.11
2023-04-15T16:11:02.115Z,68.65
2023-04-15T16:13:29.369Z,69.59
2023-04-15T16:15:56.665Z,68.54
2023-04-15T16:18:23.877Z,69.12
2023-04-15T16:20:51.356Z,68.85
2023-04-15T16:23:19.669Z,69.75
2023-04-15T16:25:47.166Z,70.13
2023-04-15T16:28:25.623Z,70.73
2023-04-15T16:30:54.156Z,72.21
2023-04-15T16:33:21.375Z,72.78
2023-04-15T16:35:48.655Z,73.91
2023-04-15T16:38:15.856Z,74.45
2023-04-15T16:40:43.118Z,75.30
2023-04-15T16:43:11.528Z,74.72
2023-04-15T16:45:38.939Z,75.13
2023-04-15T16:48:06.472Z,75.17
2023-04-15T16:50:33.896Z,75.27
2023-04-15T16:53:01.599Z,74.97
2023-04-15T16:55:28.966Z,74.95
2023-04-15T16:58:02.027Z,74.83
2023-04-15T17:00:31.922Z,74.03
2023-04-15T17:03:00.493Z,73.98
2023-04-15T17:05:27.982Z,74.65
2023-04-15T17:07:55.583Z,73.70
2023-04-15T17:10:23.115Z,74.06
2023-04-15T17:12:52.189Z,74.22
2023-04-15T17:15:19.975Z,73.97
2023-04-15T17:17:47.280Z,74.97
2023-04-15T17:20:14.623Z,74.74
2023-04-15T17:22:42.023Z,75.42
2023-04-15T17:25:09.519Z,75.43
2023-04-15T17:27:38.668Z,76.03
2023-04-15T17:30:07.574Z,75.21
2023-04-15T17:32:35.124Z,75.17
2023-04-15T17:35:06.005Z,75.02
2023-04-15T17:37:36.158Z,74.36
2023-04-15T17:40:04.347Z,74.54
2023-04-15T17:42:32.579Z,75.54
2023-04-15T17:44:59.899Z,75.92
2023-04-15T17:47:27.817Z,75.38
2023-04-15T17:49:55.190Z,75.27
2023-04-15T17:52:22.411Z,75.52
2023-04-15T17:54:49.811Z,75.71
2023-04-15T17:57:16.995Z,75.50
2023-04-15T17:59:46.808Z,74.33
2023-04-15T18:02:14.731Z,74.99
2023-04-15T18:04:42.180Z,74.36
2023-04-15T18:07:09.641Z,74.49
2023-04-15T18:09:36.932Z,74.10
2023-04-15T18:12:04.773Z,74.26
2023-04-15T18:14:34.649Z,74.85
2023-04-15T18:17:03.004Z,75.56
2023-04-15T18:19:30.686Z,76.76
2023-04-15T18:22:00.083Z,77.20
2023-04-15T18:24:28.208Z,78.17
2023-04-15T18:26:56.616Z,78.74
2023-04-15T18:29:24.227Z,79.13
2023-04-15T18:31:52.319Z,79.60
2023-04-15T18:34:19.826Z,79.22
2023-04-15T18:36:46.987Z,79.45
2023-04-15T18:39:14.269Z,79.83
2023-04-15T18:41:41.490Z,80.30
2023-04-15T18:44:08.888Z,79.73
2023-04-15T18:46:36.194Z,80.14
2023-04-15T18:49:04.267Z,80.38
2023-04-15T18:51:32.674Z,80.95
2023-04-15T18:54:00.093Z,80.98
2023-04-15T18:56:27.333Z,80.79
2023-04-15T18:59:09.706Z,80.05
2023-04-15T19:01:41.989Z,79.81
2023-04-15T19:04:10.236Z,79.80
2023-04-15T19:06:37.838Z,79.80
2023-04-15T19:09:05.271Z,80.10
2023-04-15T19:11:32.802Z,79.93
2023-04-15T19:14:00.538Z,79.89
2023-04-15T19:16:27.887Z,79.19
2023-04-15T19:18:55.105Z,79.26
2023-04-15T19:21:22.559Z,79.43
2023-04-15T19:23:50.186Z,79.67
2023-04-15T19:26:17.485Z,79.79
2023-04-15T19:28:44.720Z,80.02
2023-04-15T19:31:12.076Z,79.64
2023-04-15T19:33:39.405Z,79.78
2023-04-15T19:36:07.061Z,79.69
2023-04-15T19:38:37.524Z,79.18
2023-04-15T19:41:04.860Z,79.15
2023-04-15T19:43:32.528Z,78.95
2023-04-15T19:45:59.846Z,79.17
2023-04-15T19:48:27.137Z,79.13
2023-04-15T19:50:54.484Z,78.73
2023-04-15T19:53:21.718Z,78.62
2023-04-15T19:55:48.997Z,78.56
2023-04-15T19:58:16.704Z,78.91
2023-04-15T20:00:44.117Z,79.13
2023-04-15T20:03:11.459Z,78.88
2023-04-15T20:05:38.839Z,79.09
2023-04-15T20:08:06.126Z,78.28
2023-04-15T20:10:33.558Z,78.14
2023-04-15T20:13:00.828Z,78.02
2023-04-15T20:15:28.084Z,78.64
2023-04-15T20:17:55.294Z,78.45
2023-04-15T20:20:22.695Z,78.50
2023-04-15T20:22:49.967Z,78.30
2023-04-15T20:25:17.300Z,78.74
2023-04-15T20:27:44.646Z,79.06
2023-04-15T20:30:11.987Z,79.28
2023-04-15T20:32:39.243Z,79.21
2023-04-15T20:35:07.103Z,79.10
2023-04-15T20:37:34.448Z,79.11
2023-04-15T20:40:02.250Z,79.15
2023-04-15T20:42:34.376Z,79.26
2023-04-15T20:45:02.141Z,79.32
2023-04-15T20:47:29.859Z,79.56
2023-04-15T20:49:57.375Z,79.83
2023-04-15T20:52:24.670Z,79.76
2023-04-15T20:54:51.943Z,79.44
2023-04-15T20:57:20.316Z,79.43
2023-04-15T20:59:47.659Z,79.95
2023-04-15T21:02:15.031Z,80.23
2023-04-15T21:04:42.365Z,80.46
2023-04-15T21:07:09.972Z,80.44
2023-04-15T21:09:41.424Z,80.43
2023-04-15T21:12:09.366Z,80.89
2023-04-15T21:14:37.078Z,80.79
2023-04-15T21:17:09.278Z,80.71
2023-04-15T21:19:37.455Z,80.76
2023-04-15T21:22:04.637Z,80.68
2023-04-15T21:24:31.987Z,80.73
2023-04-15T21:26:59.201Z,80.87
2023-04-15T21:29:26.449Z,81.17
2023-04-15T21:31:53.767Z,80.95
2023-04-15T21:34:21.274Z,80.79
2023-04-15T21:36:48.484Z,80.82
2023-04-15T21:39:15.919Z,80.80
2023-04-15T21:41:43.260Z,81.08
2023-04-15T21:44:12.646Z,81.16
2023-04-15T21:46:41.994Z,81.29
2023-04-15T21:49:13.886Z,81.22
2023-04-15T21:51:41.130Z,81.05
2023-04-15T21:54:08.401Z,81.34
2023-04-15T21:56:36.868Z,81.53
2023-04-15T21:59:04.389Z,81.91
2023-04-15T22:01:31.878Z,82.37
2023-04-15T22:03:59.271Z,82.50
2023-04-15T22:06:27.179Z,81.98
2023-04-15T22:08:57.394Z,81.83
2023-04-15T22:11:28.831Z,81.79
2023-04-15T22:13:57.326Z,82.01
2023-04-15T22:16:25.625Z,82.13
2023-04-15T22:18:53.554Z,82.00
2023-04-15T22:21:20.821Z,82.25
2023-04-15T22:23:48.578Z,81.93
2023-04-15T22:26:15.955Z,82.13
2023-04-15T22:28:43.249Z,82.41
2023-04-15T22:31:10.576Z,82.25
2023-04-15T22:33:38.968Z,82.03
2023-04-15T22:36:06.434Z,82.08
2023-04-15T22:38:33.819Z,81.75
2023-04-15T22:41:01.302Z,81.61
2023-04-15T22:43:28.678Z,82.02
2023-04-15T22:45:56.714Z,82.08
2023-04-15T22:48:24.142Z,81.39
2023-04-15T22:50:51.361Z,81.57
2023-04-15T22:53:18.729Z,81.31
2023-04-15T22:55:49.025Z,81.50
2023-04-15T22:58:17.168Z,81.39
2023-04-15T23:00:44.860Z,81.32
2023-04-15T23:03:12.460Z,81.37
2023-04-15T23:05:41.364Z,81.61
2023-04-15T23:08:08.854Z,81.12
2023-04-15T23:10:36.443Z,81.19
2023-04-15T23:13:03.735Z,81.75
2023-04-15T23:15:30.992Z,82.13
2023-04-15T23:18:00.320Z,82.00
2023-04-15T23:20:27.657Z,81.66
2023-04-15T23:22:54.946Z,81.46
2023-04-15T23:25:22.797Z,81.74
2023-04-15T23:27:50.331Z,81.80
2023-04-15T23:30:17.591Z,82.17
2023-04-15T23:32:44.952Z,82.24
2023-04-15T23:35:12.162Z,82.33
2023-04-15T23:37:39.557Z,82.06
2023-04-15T23:40:07.447Z,81.88
2023-04-15T23:42:34.733Z,82.05
2023-04-15T23:45:01.999Z,82.35
2023-04-15T23:47:29.394Z,81.99
2023-04-15T23:49:56.659Z,81.45
2023-04-15T23:52:24.149Z,81.14
2023-04-15T23:54:51.465Z,81.41
2023-04-15T23:57:18.928Z,81.40
2023-04-15T23:59:46.308Z,81.31
